»·PEaware :: DAL2260 KABQ-KPHX

DAL2260 :: KABQ-KPHX

FLIGHT INFORMATION

Flight Status: Arrived
Operator:
Delta Air Lines
More flights by this operator :: More flights under this callsign
Pilot: Aaron F. (12391)
Aircraft: BOEING 767-300
(B763)
More flights by this aircraft type
Origin: KABQ Albuquerque Intl Sunport
United States
Destination: KPHX Phoenix Sky Harbor Intl
United States
More flights between these airports :: More routes between these airports
Route: +ADYOS3 ZUN EAGUL6
File this flight plan on PilotEdge
Remarks: XPlane 11
Altitude:
(Current/Filed)
30,000ft
Speed:
(Current/Filed)
320kts
Departed: 07-Oct-18 11:12 AM
Arrived: 07-Oct-18 12:09 PM
Distance/Time
Traveled:
285nm/0:57
Distance/Time
To Go:
Arrived

Flight Plot

Page will automatically refresh every two minutes.

Flight plan parsing failed; only flown route is shown


Map Options




Map Legend


Flown Route
Filed Route
Departure Airport
Arrival Airport
Navaid (VOR, NDB)
Fix

Horizontal Profiles

Position Reports

Time Latitude Longitude Heading Altitude Ground
Speed
07-Oct-18 10:37 35.046789 -106.614909 7 5326ft 0kts
07-Oct-18 10:38 35.046789 -106.614909 7 5326ft 0kts
07-Oct-18 10:39 35.046789 -106.614909 7 5326ft 0kts
07-Oct-18 10:47 35.046789 -106.614909 7 5326ft 0kts
07-Oct-18 10:48 35.046789 -106.614909 6 5326ft 0kts
07-Oct-18 10:49 35.046789 -106.614909 7 5326ft 0kts
07-Oct-18 10:50 35.046789 -106.614909 7 5326ft 0kts
07-Oct-18 10:51 35.046789 -106.614909 7 5326ft 0kts
07-Oct-18 10:52 35.046788 -106.614909 7 5326ft 0kts
07-Oct-18 10:53 35.046788 -106.614909 7 5326ft 0kts
07-Oct-18 10:54 35.046789 -106.614909 7 5326ft 0kts
07-Oct-18 10:55 35.046789 -106.614909 7 5326ft 0kts
07-Oct-18 10:56 35.046789 -106.614909 7 5326ft 0kts
07-Oct-18 10:57 35.046754 -106.614915 7 5326ft 2kts
07-Oct-18 10:58 35.046209 -106.615158 46 5326ft 2kts
07-Oct-18 10:59 35.046031 -106.615733 91 5326ft 1kts
07-Oct-18 11:00 35.046114 -106.615983 172 5326ft 0kts
07-Oct-18 11:01 35.046255 -106.615958 194 5326ft 0kts
07-Oct-18 11:02 35.046333 -106.615917 267 5326ft 0kts
07-Oct-18 11:03 35.046304 -106.615842 8 5326ft 0kts
07-Oct-18 11:04 35.046335 -106.615579 165 5326ft 0kts
07-Oct-18 11:05 35.046335 -106.615579 165 5326ft 0kts
07-Oct-18 11:06 35.046335 -106.615579 165 5326ft 0kts
07-Oct-18 11:07 35.046306 -106.615570 165 5326ft 1kts
07-Oct-18 11:08 35.045800 -106.611715 92 5326ft 15kts
07-Oct-18 11:09 35.045798 -106.606830 89 5326ft 14kts
07-Oct-18 11:10 35.045741 -106.601805 89 5331ft 23kts
07-Oct-18 11:11 35.045860 -106.593788 90 5342ft 27kts
07-Oct-18 11:12 35.045783 -106.584296 91 5353ft 27kts
07-Oct-18 11:13 35.045720 -106.576456 92 5369ft 11kts
07-Oct-18 11:14 35.044082 -106.579099 270 5364ft 51kts
07-Oct-18 11:15 35.045289 -106.631792 266 6160ft 216kts
07-Oct-18 11:16 35.045637 -106.710422 263 9488ft 252kts
07-Oct-18 11:17 35.044102 -106.800121 261 12483ft 272kts
07-Oct-18 11:18 35.046570 -106.893907 264 15455ft 285kts
07-Oct-18 11:19 35.045944 -106.992482 259 18232ft 311kts
07-Oct-18 11:20 35.042317 -107.106561 260 20473ft 365kts
07-Oct-18 11:21 35.038608 -107.231325 259 22534ft 373kts
07-Oct-18 11:22 35.034736 -107.357471 259 24572ft 382kts
07-Oct-18 11:23 35.030692 -107.485736 259 26591ft 390kts
07-Oct-18 11:24 35.026379 -107.618006 259 28621ft 399kts
07-Oct-18 11:25 35.021844 -107.751806 258 29930ft 411kts
07-Oct-18 11:26 35.017205 -107.886232 258 29929ft 403kts
07-Oct-18 11:27 35.012231 -108.022955 259 29950ft 423kts
07-Oct-18 11:28 35.006909 -108.167520 259 29924ft 446kts
07-Oct-18 11:29 35.001194 -108.317571 259 29931ft 445kts
07-Oct-18 11:30 34.995311 -108.466363 259 29947ft 443kts
07-Oct-18 11:31 34.989245 -108.615403 260 29953ft 443kts
07-Oct-18 11:32 34.983366 -108.755482 259 29967ft 441kts
07-Oct-18 11:33 34.976955 -108.904157 259 29970ft 441kts
07-Oct-18 11:34 34.970388 -109.052056 260 29975ft 438kts
07-Oct-18 11:35 34.949637 -109.193973 243 29986ft 424kts
07-Oct-18 11:36 34.903368 -109.325219 242 29979ft 421kts
07-Oct-18 11:37 34.857824 -109.450223 242 29992ft 419kts
07-Oct-18 11:38 34.810359 -109.579512 242 29990ft 420kts
07-Oct-18 11:39 34.769986 -109.688984 242 29998ft 419kts
07-Oct-18 11:40 34.722304 -109.817764 242 29995ft 419kts
07-Oct-18 11:41 34.682918 -109.923801 242 29994ft 419kts
07-Oct-18 11:42 34.629304 -110.067929 241 28687ft 347kts
07-Oct-18 11:43 34.595901 -110.156944 241 26664ft 358kts
07-Oct-18 11:44 34.547547 -110.285727 241 23842ft 370kts
07-Oct-18 11:45 34.512474 -110.378844 241 21823ft 376kts
07-Oct-18 11:46 34.462212 -110.511806 242 18967ft 380kts
07-Oct-18 11:47 34.428361 -110.601231 241 19075ft 325kts
07-Oct-18 11:48 34.409514 -110.650763 240 19052ft 302kts
07-Oct-18 11:49 34.368270 -110.758848 241 19094ft 305kts
07-Oct-18 11:50 34.310692 -110.851472 225 18454ft 307kts
07-Oct-18 11:51 34.263589 -110.912626 225 18089ft 298kts
07-Oct-18 11:52 34.197362 -110.998155 227 18089ft 305kts
07-Oct-18 11:53 34.148981 -111.060496 227 18089ft 311kts
07-Oct-18 11:54 34.089775 -111.136639 228 17850ft 320kts
07-Oct-18 11:55 34.030938 -111.212137 228 16033ft 317kts
07-Oct-18 11:56 33.970766 -111.289176 227 14295ft 326kts
07-Oct-18 11:57 33.908933 -111.368159 227 12540ft 332kts
07-Oct-18 11:58 33.847268 -111.432851 217 10770ft 296kts
07-Oct-18 11:59 33.789695 -111.482498 216 9943ft 241kts
07-Oct-18 12:00 33.736168 -111.528538 216 8513ft 226kts
07-Oct-18 12:01 33.685457 -111.572054 216 8526ft 227kts
07-Oct-18 12:02 33.635974 -111.614318 215 8526ft 228kts
07-Oct-18 12:03 33.587094 -111.655234 213 7089ft 224kts
07-Oct-18 12:04 33.536475 -111.697746 213 5337ft 224kts
07-Oct-18 12:05 33.487864 -111.738763 213 4558ft 223kts
07-Oct-18 12:06 33.451052 -111.791268 237 4037ft 203kts
07-Oct-18 12:07 33.440169 -111.851594 268 3489ft 190kts
07-Oct-18 12:08 33.440650 -111.907981 268 2530ft 161kts
07-Oct-18 12:09 33.440566 -111.957388 272 1739ft 169kts
07-Oct-18 12:10 33.440796 -112.003069 271 1143ft 121kts
07-Oct-18 12:11 33.439782 -112.016768 103 1142ft 16kts
07-Oct-18 12:12 33.438944 -112.010648 110 1142ft 14kts
07-Oct-18 12:13 33.436370 -112.009490 93 1142ft 0kts

Navigation Log

Ident Type
Flight plan parsing failed, navigation log unavailable